Astoria, OR

3:54 PM PST on December 27, 2014 (GMT -0800)
The Slope of South | Change Station
CLOSE
Current Station
Personal Weather Station
Location: Astoria, OR
Elevation: 213 ft
Nearby Weather Stations

Elev 213 ft 46.18 °N, 123.84 °W | Updated 14 minutes ago

Overcast
Overcast
47.3 °F
Feels Like 47 °F
N
0.0
Wind Variable Wind from SE

Today
High -- | Low -- °F
--% Chance of Precip.
Yesterday
High -- | Low -- °F
Precip. -- in
7:57 AM 4:35 PM
Waxing Crescent, 41% visible
Pressure 30.17 in
Visibility 3.0 miles
Clouds Few 900 ft
Mostly Cloudy 3100 ft
Overcast 4300 ft
Windchill 47 °F
Dew Point 47 °F
Humidity 98%
Rainfall 0.20 in
Snow Depth Not available.
UV 0 out of 12
Pollen .50 out of 12
Air Quality Not available.
Flu Activity Not available.
SPECI KAST 272320Z AUTO 27012G22KT 3SM RA BR FEW009 BKN031 OVC043 09/07 A3017 RMK AO2 VIS 2 RWY 08 P0006 T00890072

More Conditions Fewer Conditions

Pressure 30.17 in
Visibility 3.0 miles
Clouds Few 900 ft
Mostly Cloudy 3100 ft
Overcast 4300 ft
Windchill 47 °F
Dew Point 47 °F
Humidity 98%
Rainfall 0.20 in
Snow Depth Not available.
UV 0 out of 12
Pollen .50 out of 12
Air Quality Not available.
Flu Activity Not available.
SPECI KAST 272320Z AUTO 27012G22KT 3SM RA BR FEW009 BKN031 OVC043 09/07 A3017 RMK AO2 VIS 2 RWY 08 P0006 T00890072

More Conditions Fewer Conditions

10-Day Weather Forecast

Almanac

Astronomy

Dec. 27, 2014 Rise Set
Actual Time
Civil Twilight
Nautical Twilight
Astronomical Twilight
Moon
Length of Visible Light
Length of Day
Tomorrow will be .
, % of the Moon is Illuminated

Today's Extremes

State Highs State Lows

Community

WunderPhotos

Upload Photos

1,781,110 photos uploaded!

WunderBlogs® & News

Nearby

Air Quality

  Air Quality AQ Index Pollutant
Not available.

Snow Depth

Station Depth Elevation

Earthquake Activity

City Distance Mag. Time & Date
Minimum magnitude displayed is 2.5.

Coastal Water Temperatures

Place Temperature

Nearby Weather Stations